createdAt,value
2023-03-26T00:00:24.351Z,7.22
2023-03-26T00:00:55.402Z,7.27
2023-03-26T00:01:26.348Z,7.27
2023-03-26T00:01:59.447Z,7.22
2023-03-26T00:02:30.738Z,7.22
2023-03-26T00:03:03.501Z,7.27
2023-03-26T00:03:34.410Z,7.27
2023-03-26T00:04:07.391Z,7.22
2023-03-26T00:04:38.673Z,7.22
2023-03-26T00:05:11.601Z,7.27
2023-03-26T00:05:43.249Z,7.27
2023-03-26T00:06:15.428Z,7.22
2023-03-26T00:06:46.450Z,7.22
2023-03-26T00:07:19.446Z,7.27
2023-03-26T00:07:50.691Z,7.27
2023-03-26T00:08:23.377Z,7.27
2023-03-26T00:08:54.542Z,7.27
2023-03-26T00:09:27.412Z,7.27
2023-03-26T00:09:58.614Z,7.27
2023-03-26T00:10:31.681Z,7.22
2023-03-26T00:11:02.547Z,7.22
2023-03-26T00:11:35.445Z,7.22
2023-03-26T00:12:06.457Z,7.22
2023-03-26T00:12:39.548Z,7.22
2023-03-26T00:13:10.588Z,7.22
2023-03-26T00:13:43.491Z,7.22
2023-03-26T00:14:14.500Z,7.22
2023-03-26T00:14:30.712Z,7.22
2023-03-26T00:15:03.901Z,7.22
2023-03-26T00:15:34.570Z,7.22
2023-03-26T00:16:06.636Z,7.22
2023-03-26T00:16:38.709Z,7.22
2023-03-26T00:17:10.673Z,7.22
2023-03-26T00:17:42.583Z,7.22
2023-03-26T00:18:14.715Z,7.22
2023-03-26T00:18:46.455Z,7.22
2023-03-26T00:19:19.469Z,7.22
2023-03-26T00:19:50.608Z,7.22
2023-03-26T00:20:23.598Z,7.22
2023-03-26T00:20:54.528Z,7.22
2023-03-26T00:21:27.331Z,7.22
2023-03-26T00:21:58.599Z,7.22
2023-03-26T00:22:31.527Z,7.22
2023-03-26T00:23:02.684Z,7.22
2023-03-26T00:23:35.325Z,7.22
2023-03-26T00:24:06.518Z,7.22
2023-03-26T00:24:39.274Z,7.22
2023-03-26T00:25:10.994Z,7.22
2023-03-26T00:25:43.460Z,7.22
2023-03-26T00:26:14.464Z,7.22
2023-03-26T00:26:30.784Z,7.22
2023-03-26T00:27:02.766Z,7.22
2023-03-26T00:27:34.578Z,7.22
2023-03-26T00:28:06.714Z,7.22
2023-03-26T00:28:38.633Z,7.22
2023-03-26T00:29:11.423Z,7.22
2023-03-26T00:29:42.616Z,7.22
2023-03-26T00:30:16.072Z,7.22
2023-03-26T00:30:46.746Z,7.22
2023-03-26T00:31:02.825Z,7.22
2023-03-26T00:31:34.439Z,7.22
2023-03-26T00:32:06.512Z,7.22
2023-03-26T00:32:38.657Z,7.22
2023-03-26T00:33:10.546Z,7.22
2023-03-26T00:33:43.477Z,7.22
2023-03-26T00:34:14.541Z,7.22
2023-03-26T00:34:47.355Z,7.22
2023-03-26T00:35:18.896Z,7.22
2023-03-26T00:35:51.460Z,7.22
2023-03-26T00:36:22.632Z,7.22
2023-03-26T00:36:55.429Z,7.22
2023-03-26T00:37:26.583Z,7.22
2023-03-26T00:37:59.498Z,7.22
2023-03-26T00:38:30.690Z,7.22
2023-03-26T00:39:03.276Z,7.22
2023-03-26T00:39:34.496Z,7.22
2023-03-26T00:40:07.721Z,7.22
2023-03-26T00:40:38.438Z,7.22
2023-03-26T00:41:11.463Z,7.22
2023-03-26T00:41:42.645Z,7.22
2023-03-26T00:42:15.458Z,7.22
2023-03-26T00:42:46.592Z,7.22
2023-03-26T00:43:02.697Z,7.22
2023-03-26T00:43:34.431Z,7.27
2023-03-26T00:44:06.498Z,7.27
2023-03-26T00:44:38.585Z,7.22
2023-03-26T00:45:11.484Z,7.22
2023-03-26T00:45:43.547Z,7.22
2023-03-26T00:46:14.618Z,7.22
2023-03-26T00:46:47.632Z,7.27
2023-03-26T00:47:18.495Z,7.27
2023-03-26T00:47:51.615Z,7.27
2023-03-26T00:48:31.331Z,7.27
2023-03-26T00:48:55.491Z,7.27
2023-03-26T00:49:26.428Z,7.27
2023-03-26T00:49:59.375Z,7.27
2023-03-26T00:50:30.972Z,7.27
2023-03-26T00:51:03.328Z,7.27
2023-03-26T00:51:34.498Z,7.27
2023-03-26T00:52:07.517Z,7.27
2023-03-26T00:52:38.461Z,7.27
2023-03-26T00:53:11.618Z,7.27
2023-03-26T00:53:42.563Z,7.27
2023-03-26T00:54:15.477Z,7.27
2023-03-26T00:54:46.494Z,7.27
2023-03-26T00:55:19.606Z,7.27
2023-03-26T00:55:50.620Z,7.27
2023-03-26T00:56:23.415Z,7.27
2023-03-26T00:56:54.614Z,7.27
2023-03-26T00:57:35.403Z,7.27
2023-03-26T00:57:58.644Z,7.27
2023-03-26T00:58:33.376Z,7.38
2023-03-26T00:59:02.561Z,7.38
2023-03-26T00:59:35.500Z,7.27
2023-03-26T01:00:09.661Z,7.27
2023-03-26T01:00:39.359Z,7.27
2023-03-26T01:01:10.734Z,7.27
2023-03-26T01:01:43.532Z,7.38
2023-03-26T01:02:14.493Z,7.38
2023-03-26T01:02:30.908Z,7.38
2023-03-26T01:03:02.640Z,7.38
2023-03-26T01:03:34.551Z,7.38
2023-03-26T01:04:09.081Z,7.38
2023-03-26T01:04:38.831Z,7.38
2023-03-26T01:05:10.800Z,7.38
2023-03-26T01:05:42.600Z,7.38
2023-03-26T01:06:14.619Z,7.38
2023-03-26T01:06:46.522Z,7.38
2023-03-26T01:07:19.364Z,7.38
2023-03-26T01:07:50.539Z,7.38
2023-03-26T01:08:23.471Z,7.38
2023-03-26T01:08:54.472Z,7.38
2023-03-26T01:09:27.370Z,7.38
2023-03-26T01:09:58.613Z,7.38
2023-03-26T01:10:31.548Z,7.38
2023-03-26T01:11:02.628Z,7.38
2023-03-26T01:11:35.321Z,7.38
2023-03-26T01:12:06.525Z,7.38
2023-03-26T01:12:39.564Z,7.38
2023-03-26T01:13:10.665Z,7.38
2023-03-26T01:13:43.445Z,7.38
2023-03-26T01:14:14.663Z,7.38
2023-03-26T01:14:47.319Z,7.38
2023-03-26T01:15:19.398Z,7.38
2023-03-26T01:15:51.546Z,7.38
2023-03-26T01:16:22.747Z,7.38
2023-03-26T01:16:55.503Z,7.50
2023-03-26T01:17:26.729Z,7.50
2023-03-26T01:17:59.425Z,7.38
2023-03-26T01:18:30.741Z,7.38
2023-03-26T01:19:03.495Z,7.38
2023-03-26T01:19:34.724Z,7.38
2023-03-26T01:20:07.590Z,7.38
2023-03-26T01:20:38.633Z,7.38
2023-03-26T01:21:11.448Z,7.38
2023-03-26T01:21:42.656Z,7.38
2023-03-26T01:22:15.454Z,7.50
2023-03-26T01:22:46.655Z,7.50
2023-03-26T01:23:19.284Z,7.38
2023-03-26T01:23:50.508Z,7.38
2023-03-26T01:24:23.529Z,7.38
2023-03-26T01:24:54.746Z,7.38
2023-03-26T01:25:27.618Z,7.38
2023-03-26T01:25:58.577Z,7.38
2023-03-26T01:26:32.371Z,7.38
2023-03-26T01:27:02.656Z,7.38
2023-03-26T01:27:35.363Z,7.38
2023-03-26T01:28:06.613Z,7.38
2023-03-26T01:28:39.462Z,7.38
2023-03-26T01:29:10.612Z,7.38
2023-03-26T01:29:43.265Z,7.38
2023-03-26T01:30:15.445Z,7.38
2023-03-26T01:30:47.449Z,7.50
2023-03-26T01:31:18.535Z,7.50
2023-03-26T01:31:51.420Z,7.38
2023-03-26T01:32:22.796Z,7.38
2023-03-26T01:32:55.481Z,7.38
2023-03-26T01:33:26.761Z,7.38
2023-03-26T01:33:59.318Z,7.38
2023-03-26T01:34:30.500Z,7.38
2023-03-26T01:35:03.619Z,7.38
2023-03-26T01:35:34.603Z,7.38
2023-03-26T01:36:07.382Z,7.38
2023-03-26T01:36:38.621Z,7.38
2023-03-26T01:37:11.344Z,7.38
2023-03-26T01:37:42.585Z,7.38
2023-03-26T01:38:15.233Z,7.38
2023-03-26T01:38:46.553Z,7.38
2023-03-26T01:39:19.306Z,7.38
2023-03-26T01:39:50.660Z,7.38
2023-03-26T01:40:23.605Z,7.38
2023-03-26T01:40:54.516Z,7.38
2023-03-26T01:41:27.384Z,7.38
2023-03-26T01:41:58.592Z,7.38
2023-03-26T01:42:31.431Z,7.38
2023-03-26T01:43:02.623Z,7.38
2023-03-26T01:43:35.276Z,7.38
2023-03-26T01:44:06.478Z,7.38
2023-03-26T01:44:39.373Z,7.27
2023-03-26T01:45:11.582Z,7.27
2023-03-26T01:45:43.456Z,7.27
2023-03-26T01:46:14.575Z,7.27
2023-03-26T01:46:47.366Z,7.27
2023-03-26T01:47:18.605Z,7.27
2023-03-26T01:47:51.248Z,7.27
2023-03-26T01:48:22.523Z,7.27
2023-03-26T01:48:55.455Z,7.27
2023-03-26T01:49:26.548Z,7.27
2023-03-26T01:49:59.270Z,7.27
2023-03-26T01:50:31.006Z,7.27
2023-03-26T01:51:03.161Z,7.22
2023-03-26T01:51:34.435Z,7.22
2023-03-26T01:52:07.583Z,7.22
2023-03-26T01:52:38.406Z,7.22
2023-03-26T01:53:11.311Z,7.22
2023-03-26T01:53:42.615Z,7.22
2023-03-26T01:54:15.439Z,7.22
2023-03-26T01:54:46.675Z,7.22
2023-03-26T01:55:19.568Z,7.22
2023-03-26T01:55:50.612Z,7.22
2023-03-26T01:56:23.422Z,7.22
2023-03-26T01:56:54.586Z,7.22
2023-03-26T01:57:27.548Z,7.11
2023-03-26T01:57:58.949Z,7.11
2023-03-26T01:58:31.664Z,7.11
2023-03-26T01:59:02.672Z,7.11
2023-03-26T01:59:35.375Z,7.00
2023-03-26T02:00:07.873Z,7.00
2023-03-26T02:00:39.416Z,7.11
2023-03-26T02:01:10.590Z,7.11
2023-03-26T02:01:43.675Z,7.00
2023-03-26T02:02:14.827Z,7.00
2023-03-26T02:02:47.771Z,7.00
2023-03-26T02:03:19.062Z,7.00
2023-03-26T02:03:51.356Z,7.00
2023-03-26T02:04:22.644Z,7.00
2023-03-26T02:04:55.523Z,7.00
2023-03-26T02:05:26.864Z,7.00
2023-03-26T02:05:59.475Z,6.88
2023-03-26T02:06:30.591Z,6.88
2023-03-26T02:07:03.502Z,6.88
2023-03-26T02:07:34.636Z,6.88
2023-03-26T02:08:07.705Z,6.88
2023-03-26T02:08:38.694Z,6.88
2023-03-26T02:09:11.553Z,6.88
2023-03-26T02:09:42.636Z,6.88
2023-03-26T02:10:15.800Z,6.88
2023-03-26T02:10:46.624Z,6.88
2023-03-26T02:11:20.077Z,6.88
2023-03-26T02:11:50.602Z,6.88
2023-03-26T02:12:23.460Z,6.88
2023-03-26T02:12:54.701Z,6.88
2023-03-26T02:13:27.380Z,6.88
2023-03-26T02:13:58.564Z,6.88
2023-03-26T02:14:34.389Z,6.88
2023-03-26T02:15:03.868Z,6.88
2023-03-26T02:15:35.574Z,6.88
2023-03-26T02:16:06.699Z,6.88
2023-03-26T02:16:39.291Z,6.77
2023-03-26T02:17:10.746Z,6.77
2023-03-26T02:17:43.533Z,6.88
2023-03-26T02:18:14.645Z,6.88
2023-03-26T02:18:47.581Z,6.77
2023-03-26T02:19:18.629Z,6.77
2023-03-26T02:19:51.342Z,6.77
2023-03-26T02:20:22.770Z,6.77
2023-03-26T02:20:55.254Z,6.77
2023-03-26T02:21:26.687Z,6.77
2023-03-26T02:21:59.558Z,6.77
2023-03-26T02:22:30.739Z,6.77
2023-03-26T02:23:03.620Z,6.77
2023-03-26T02:23:34.645Z,6.77
2023-03-26T02:24:07.321Z,6.77
2023-03-26T02:24:38.703Z,6.77
2023-03-26T02:25:11.738Z,6.77
2023-03-26T02:25:42.722Z,6.77
2023-03-26T02:26:15.513Z,6.77
2023-03-26T02:26:46.674Z,6.77
2023-03-26T02:27:19.719Z,6.77
2023-03-26T02:27:50.533Z,6.77
2023-03-26T02:28:23.605Z,6.77
2023-03-26T02:28:54.789Z,6.77
2023-03-26T02:29:27.667Z,6.77
2023-03-26T02:29:58.764Z,6.77
2023-03-26T02:30:36.391Z,6.77
2023-03-26T02:31:02.781Z,6.77
2023-03-26T02:31:34.604Z,6.77
2023-03-26T02:32:07.306Z,6.77
2023-03-26T02:32:38.620Z,6.77
2023-03-26T02:33:11.481Z,6.77
2023-03-26T02:33:42.421Z,6.77
2023-03-26T02:34:15.473Z,6.77
2023-03-26T02:34:46.606Z,6.77
2023-03-26T02:35:19.611Z,6.77
2023-03-26T02:35:50.695Z,6.77
2023-03-26T02:36:24.676Z,6.77
2023-03-26T02:36:54.843Z,6.77
2023-03-26T02:37:27.418Z,6.77
2023-03-26T02:37:58.549Z,6.77
2023-03-26T02:38:32.458Z,6.77
2023-03-26T02:39:02.566Z,6.77
2023-03-26T02:39:35.412Z,6.77
2023-03-26T02:40:06.811Z,6.77
2023-03-26T02:40:41.236Z,6.77
2023-03-26T02:41:10.590Z,6.77
2023-03-26T02:41:43.592Z,6.77
2023-03-26T02:42:14.593Z,6.77
2023-03-26T02:42:47.458Z,6.77
2023-03-26T02:43:18.573Z,6.77
2023-03-26T02:43:51.359Z,6.77
2023-03-26T02:44:22.616Z,6.72
2023-03-26T02:44:55.363Z,6.72
2023-03-26T02:45:27.686Z,6.72
2023-03-26T02:45:59.925Z,6.72
2023-03-26T02:46:30.564Z,6.72
2023-03-26T02:47:03.292Z,6.72
2023-03-26T02:47:34.742Z,6.72
2023-03-26T02:48:07.544Z,6.72
2023-03-26T02:48:38.547Z,6.61
2023-03-26T02:49:11.250Z,6.61
2023-03-26T02:49:42.575Z,6.61
2023-03-26T02:50:15.707Z,6.61
2023-03-26T02:50:46.502Z,6.61
2023-03-26T02:51:19.598Z,6.61
2023-03-26T02:51:50.556Z,6.50
2023-03-26T02:52:24.265Z,6.50
2023-03-26T02:52:54.725Z,6.50
2023-03-26T02:53:27.562Z,6.50
2023-03-26T02:53:58.502Z,6.38
2023-03-26T02:54:32.420Z,6.38
2023-03-26T02:55:03.038Z,6.38
2023-03-26T02:55:35.526Z,6.38
2023-03-26T02:56:06.590Z,6.38
2023-03-26T02:56:39.599Z,6.38
2023-03-26T02:57:10.647Z,6.27
2023-03-26T02:57:43.479Z,6.27
2023-03-26T02:58:14.650Z,6.27
2023-03-26T02:58:47.804Z,6.27
2023-03-26T02:59:18.565Z,6.27
2023-03-26T02:59:51.435Z,6.27
2023-03-26T03:00:24.344Z,6.27
2023-03-26T03:00:55.512Z,6.27
2023-03-26T03:01:26.758Z,6.27
2023-03-26T03:01:59.499Z,6.27
2023-03-26T03:02:30.743Z,6.22
2023-03-26T03:03:03.609Z,6.22
2023-03-26T03:03:34.751Z,6.22
2023-03-26T03:04:07.574Z,6.22
2023-03-26T03:04:38.507Z,6.22
2023-03-26T03:05:11.648Z,6.22
2023-03-26T03:05:42.676Z,6.11
2023-03-26T03:06:15.505Z,6.11
2023-03-26T03:06:46.557Z,6.11
2023-03-26T03:07:19.753Z,6.11
2023-03-26T03:07:50.682Z,6.11
2023-03-26T03:08:23.577Z,6.11
2023-03-26T03:08:54.610Z,6.11
2023-03-26T03:09:27.541Z,6.11
2023-03-26T03:09:58.496Z,6.11
2023-03-26T03:10:31.901Z,6.11
2023-03-26T03:11:02.631Z,6.11
2023-03-26T03:11:35.398Z,6.11
2023-03-26T03:12:06.539Z,6.11
2023-03-26T03:12:39.674Z,6.11
2023-03-26T03:13:10.718Z,6.00
2023-03-26T03:13:43.193Z,6.00
2023-03-26T03:14:14.651Z,6.00
2023-03-26T03:14:47.317Z,6.00
2023-03-26T03:15:19.391Z,6.11
2023-03-26T03:15:51.810Z,6.11
2023-03-26T03:16:22.608Z,6.11
2023-03-26T03:16:55.616Z,6.11
2023-03-26T03:17:26.555Z,6.11
2023-03-26T03:17:59.706Z,6.11
2023-03-26T03:18:30.678Z,6.11
2023-03-26T03:19:03.154Z,6.11
2023-03-26T03:19:34.506Z,6.11
2023-03-26T03:20:07.654Z,6.11
2023-03-26T03:20:38.527Z,6.11
2023-03-26T03:21:11.317Z,6.11
2023-03-26T03:21:42.717Z,6.11
2023-03-26T03:22:16.264Z,6.11
2023-03-26T03:22:46.616Z,6.11
2023-03-26T03:23:19.316Z,6.11
2023-03-26T03:23:50.580Z,6.11
2023-03-26T03:24:23.351Z,6.11
2023-03-26T03:24:54.624Z,6.00
2023-03-26T03:25:27.885Z,6.00
2023-03-26T03:25:58.536Z,6.00
2023-03-26T03:26:31.550Z,6.00
2023-03-26T03:27:02.620Z,6.00
2023-03-26T03:27:35.551Z,6.00
2023-03-26T03:28:06.471Z,6.00
2023-03-26T03:28:39.378Z,6.00
2023-03-26T03:29:10.620Z,6.00
2023-03-26T03:29:43.359Z,6.00
2023-03-26T03:30:15.377Z,6.00
2023-03-26T03:30:47.525Z,6.00
2023-03-26T03:31:18.784Z,5.88
2023-03-26T03:31:51.454Z,5.88
2023-03-26T03:32:22.793Z,5.88
2023-03-26T03:32:55.639Z,5.88
2023-03-26T03:33:26.499Z,5.88
2023-03-26T03:33:59.500Z,5.88
2023-03-26T03:34:30.725Z,5.88
2023-03-26T03:35:03.830Z,5.88
2023-03-26T03:35:34.520Z,5.88
2023-03-26T03:36:07.575Z,5.88
2023-03-26T03:36:38.792Z,5.88
2023-03-26T03:37:11.446Z,5.88
2023-03-26T03:37:42.615Z,5.88
2023-03-26T03:38:15.369Z,5.88
2023-03-26T03:38:46.745Z,5.88
2023-03-26T03:39:19.385Z,5.88
2023-03-26T03:39:50.587Z,5.88
2023-03-26T03:40:23.948Z,5.88
2023-03-26T03:40:54.619Z,5.88
2023-03-26T03:41:27.454Z,5.88
2023-03-26T03:41:58.788Z,5.77
2023-03-26T03:42:31.478Z,5.77
2023-03-26T03:43:02.679Z,5.77
2023-03-26T03:43:35.409Z,5.77
2023-03-26T03:44:06.698Z,5.88
2023-03-26T03:44:40.265Z,5.88
2023-03-26T03:45:11.644Z,5.88
2023-03-26T03:45:43.685Z,5.88
2023-03-26T03:46:14.700Z,5.88
2023-03-26T03:46:47.387Z,5.88
2023-03-26T03:47:18.698Z,5.88
2023-03-26T03:47:51.735Z,5.88
2023-03-26T03:48:22.551Z,5.88
2023-03-26T03:48:55.588Z,5.88
2023-03-26T03:49:26.709Z,5.88
2023-03-26T03:49:59.609Z,5.88
2023-03-26T03:50:31.355Z,5.88
2023-03-26T03:51:03.540Z,5.88
2023-03-26T03:51:34.732Z,5.88
2023-03-26T03:52:09.529Z,5.88
2023-03-26T03:52:38.591Z,5.88
2023-03-26T03:53:11.352Z,5.88
2023-03-26T03:53:42.472Z,5.88
2023-03-26T03:54:15.480Z,5.88
2023-03-26T03:54:46.708Z,6.00
2023-03-26T03:55:19.903Z,6.00
2023-03-26T03:55:50.580Z,6.00
2023-03-26T03:56:23.535Z,6.00
2023-03-26T03:56:54.726Z,6.00
2023-03-26T03:57:27.553Z,6.00
2023-03-26T03:57:58.649Z,6.00
2023-03-26T03:58:31.614Z,6.00
2023-03-26T03:59:02.715Z,6.00
2023-03-26T03:59:35.317Z,6.00
2023-03-26T04:00:07.967Z,6.00
2023-03-26T04:00:39.825Z,6.00
2023-03-26T04:01:10.552Z,6.00
2023-03-26T04:01:43.605Z,6.00
2023-03-26T04:02:14.744Z,6.00
2023-03-26T04:02:47.708Z,6.00
2023-03-26T04:03:18.630Z,6.00
2023-03-26T04:03:51.607Z,6.00
2023-03-26T04:04:22.661Z,6.00
2023-03-26T04:04:55.373Z,6.00
2023-03-26T04:05:26.923Z,6.00
2023-03-26T04:05:59.371Z,6.00
2023-03-26T04:06:30.814Z,6.00
2023-03-26T04:07:03.323Z,6.00
2023-03-26T04:07:34.645Z,6.00
2023-03-26T04:08:07.390Z,6.00
2023-03-26T04:08:38.568Z,6.00
2023-03-26T04:09:11.460Z,6.00
2023-03-26T04:09:42.753Z,6.00
2023-03-26T04:10:16.446Z,6.00
2023-03-26T04:10:46.565Z,6.00
2023-03-26T04:11:19.430Z,6.00
2023-03-26T04:11:50.697Z,6.00
2023-03-26T04:12:23.409Z,6.00
2023-03-26T04:12:54.584Z,6.00
2023-03-26T04:13:27.509Z,6.00
2023-03-26T04:13:58.725Z,5.88
2023-03-26T04:14:31.422Z,5.88
2023-03-26T04:15:04.096Z,5.88
2023-03-26T04:15:35.579Z,5.88
2023-03-26T04:16:06.585Z,5.88
2023-03-26T04:16:39.491Z,5.88
2023-03-26T04:17:10.932Z,5.88
2023-03-26T04:17:43.405Z,5.88
2023-03-26T04:18:14.528Z,5.88
2023-03-26T04:18:47.474Z,5.88
2023-03-26T04:19:18.687Z,5.88
2023-03-26T04:19:51.338Z,5.88
2023-03-26T04:20:22.913Z,5.88
2023-03-26T04:20:55.699Z,5.88
2023-03-26T04:21:26.536Z,5.88
2023-03-26T04:21:59.415Z,5.88
2023-03-26T04:22:30.722Z,5.88
2023-03-26T04:23:03.447Z,5.88
2023-03-26T04:23:34.596Z,5.77
2023-03-26T04:24:07.406Z,5.77
2023-03-26T04:24:38.634Z,5.77
2023-03-26T04:25:11.664Z,5.77
2023-03-26T04:25:42.607Z,5.77
2023-03-26T04:26:15.472Z,5.77
2023-03-26T04:26:46.502Z,5.77
2023-03-26T04:27:02.734Z,5.77
2023-03-26T04:27:34.766Z,5.77
2023-03-26T04:28:06.592Z,5.77
2023-03-26T04:28:39.395Z,5.77
2023-03-26T04:29:10.732Z,5.77
2023-03-26T04:29:43.680Z,5.77
2023-03-26T04:30:15.526Z,5.77
2023-03-26T04:30:47.631Z,5.72
2023-03-26T04:31:18.661Z,5.72
2023-03-26T04:31:51.445Z,5.77
2023-03-26T04:32:22.661Z,5.77
2023-03-26T04:32:55.635Z,5.72
2023-03-26T04:33:26.553Z,5.72
2023-03-26T04:33:59.378Z,5.72
2023-03-26T04:34:30.610Z,5.72
2023-03-26T04:35:04.029Z,5.72
2023-03-26T04:35:34.773Z,5.72
2023-03-26T04:36:07.415Z,5.72
2023-03-26T04:36:38.657Z,5.72
2023-03-26T04:37:11.521Z,5.72
2023-03-26T04:37:42.602Z,5.72
2023-03-26T04:38:15.408Z,5.72
2023-03-26T04:38:46.543Z,5.72
2023-03-26T04:39:19.470Z,5.61
2023-03-26T04:39:50.695Z,5.61
2023-03-26T04:40:25.181Z,5.61
2023-03-26T04:40:54.596Z,5.61
2023-03-26T04:41:27.450Z,5.61
2023-03-26T04:41:58.654Z,5.61
2023-03-26T04:42:31.522Z,5.61
2023-03-26T04:43:02.569Z,5.61
2023-03-26T04:43:35.581Z,5.61
2023-03-26T04:44:06.626Z,5.61
2023-03-26T04:44:39.489Z,5.61
2023-03-26T04:45:11.606Z,5.61
2023-03-26T04:45:43.614Z,5.61
2023-03-26T04:46:14.666Z,5.61
2023-03-26T04:46:47.520Z,5.61
2023-03-26T04:47:18.641Z,5.61
2023-03-26T04:47:51.404Z,5.61
2023-03-26T04:48:22.592Z,5.61
2023-03-26T04:48:55.685Z,5.50
2023-03-26T04:49:26.674Z,5.50
2023-03-26T04:49:59.371Z,5.50
2023-03-26T04:50:30.962Z,5.50
2023-03-26T04:51:03.520Z,5.50
2023-03-26T04:51:34.653Z,5.50
2023-03-26T04:52:07.396Z,5.50
2023-03-26T04:52:38.760Z,5.50
2023-03-26T04:53:14.613Z,5.50
2023-03-26T04:53:42.538Z,5.50
2023-03-26T04:54:15.364Z,5.50
2023-03-26T04:54:46.752Z,5.50
2023-03-26T04:55:19.714Z,5.50
2023-03-26T04:55:50.694Z,5.50
2023-03-26T04:56:23.522Z,5.50
2023-03-26T04:56:54.601Z,5.50
2023-03-26T04:57:27.543Z,5.50
2023-03-26T04:57:58.681Z,5.50
2023-03-26T04:58:31.598Z,5.50
2023-03-26T04:59:02.659Z,5.50
2023-03-26T04:59:35.624Z,5.50
2023-03-26T05:00:08.132Z,5.50
2023-03-26T05:00:40.303Z,5.50
2023-03-26T05:01:10.915Z,5.50
2023-03-26T05:01:43.716Z,5.50
2023-03-26T05:02:14.723Z,5.50
2023-03-26T05:02:47.655Z,5.50
2023-03-26T05:03:18.639Z,5.50
2023-03-26T05:03:51.592Z,5.50
2023-03-26T05:04:22.665Z,5.50
2023-03-26T05:04:55.586Z,5.50
2023-03-26T05:05:26.886Z,5.50
2023-03-26T05:05:59.503Z,5.50
2023-03-26T05:06:30.972Z,5.50
2023-03-26T05:07:03.650Z,5.61
2023-03-26T05:07:34.672Z,5.61
2023-03-26T05:08:07.597Z,5.50
2023-03-26T05:08:38.818Z,5.50
2023-03-26T05:09:12.377Z,5.61
2023-03-26T05:09:43.032Z,5.61
2023-03-26T05:10:15.752Z,5.61
2023-03-26T05:10:46.888Z,5.61
2023-03-26T05:11:19.737Z,5.61
2023-03-26T05:11:50.786Z,5.61
2023-03-26T05:12:24.652Z,5.61
2023-03-26T05:12:54.952Z,5.61
2023-03-26T05:13:29.817Z,5.72
2023-03-26T05:13:58.787Z,5.72
2023-03-26T05:14:31.631Z,5.61
2023-03-26T05:15:04.278Z,5.61
2023-03-26T05:15:35.834Z,5.72
2023-03-26T05:16:06.876Z,5.72
2023-03-26T05:16:39.909Z,5.72
2023-03-26T05:17:11.189Z,5.72
2023-03-26T05:17:44.788Z,5.72
2023-03-26T05:18:14.839Z,5.72
2023-03-26T05:18:47.818Z,5.72
2023-03-26T05:19:18.805Z,5.72
2023-03-26T05:19:51.707Z,5.72
2023-03-26T05:20:23.198Z,5.72
2023-03-26T05:20:55.750Z,5.72
2023-03-26T05:21:26.775Z,5.72
2023-03-26T05:21:59.685Z,5.72
2023-03-26T05:22:31.054Z,5.72
2023-03-26T05:23:03.688Z,5.72
2023-03-26T05:23:34.792Z,5.72
2023-03-26T05:24:07.668Z,5.72
2023-03-26T05:24:38.933Z,5.72
2023-03-26T05:25:11.909Z,5.72
2023-03-26T05:25:42.877Z,5.72
2023-03-26T05:26:15.674Z,5.72
2023-03-26T05:26:46.847Z,5.72
2023-03-26T05:27:19.769Z,5.77
2023-03-26T05:27:50.895Z,5.77
2023-03-26T05:28:23.532Z,5.72
2023-03-26T05:28:54.915Z,5.72
2023-03-26T05:29:27.909Z,5.77
2023-03-26T05:29:59.025Z,5.77
2023-03-26T05:30:33.696Z,5.77
2023-03-26T05:31:02.920Z,5.77
2023-03-26T05:31:35.929Z,5.72
2023-03-26T05:32:06.711Z,5.72
2023-03-26T05:32:39.918Z,5.77
2023-03-26T05:33:11.042Z,5.77
2023-03-26T05:33:44.755Z,5.77
2023-03-26T05:34:14.786Z,5.77
2023-03-26T05:34:47.707Z,5.72
2023-03-26T05:35:19.317Z,5.72
2023-03-26T05:35:52.636Z,5.77
2023-03-26T05:36:22.808Z,5.77
2023-03-26T05:36:55.656Z,5.77
2023-03-26T05:37:26.925Z,5.77
2023-03-26T05:37:59.635Z,5.77
2023-03-26T05:38:30.961Z,5.77
2023-03-26T05:39:03.809Z,5.77
2023-03-26T05:39:35.071Z,5.77
2023-03-26T05:40:08.033Z,5.77
2023-03-26T05:40:38.931Z,5.77
2023-03-26T05:41:11.901Z,5.77
2023-03-26T05:41:42.969Z,5.77
2023-03-26T05:42:15.849Z,5.77
2023-03-26T05:42:46.849Z,5.77
2023-03-26T05:43:19.770Z,5.77
2023-03-26T05:43:50.833Z,5.77
2023-03-26T05:44:23.615Z,5.77
2023-03-26T05:44:54.945Z,5.77
2023-03-26T05:45:31.743Z,5.77
2023-03-26T05:45:59.029Z,5.77
2023-03-26T05:46:31.839Z,5.77
2023-03-26T05:47:02.797Z,5.77
2023-03-26T05:47:35.722Z,5.77
2023-03-26T05:48:06.953Z,5.77
2023-03-26T05:48:39.899Z,5.77
2023-03-26T05:49:10.796Z,5.77
2023-03-26T05:49:43.693Z,5.77
2023-03-26T05:50:15.160Z,5.77
2023-03-26T05:50:47.673Z,5.77
2023-03-26T05:51:18.780Z,5.77
2023-03-26T05:51:53.705Z,5.77
2023-03-26T05:52:22.955Z,5.77
2023-03-26T05:52:55.726Z,5.77
2023-03-26T05:53:26.978Z,5.77
2023-03-26T05:53:59.669Z,5.77
2023-03-26T05:54:30.852Z,5.77
2023-03-26T05:55:03.927Z,5.77
2023-03-26T05:55:34.981Z,5.77
2023-03-26T05:56:07.678Z,5.77
2023-03-26T05:56:38.817Z,5.77
2023-03-26T05:57:12.032Z,5.88
2023-03-26T05:57:42.915Z,5.88
2023-03-26T05:58:15.650Z,5.88
2023-03-26T05:58:46.911Z,5.88
2023-03-26T05:59:19.891Z,5.88
2023-03-26T05:59:50.984Z,5.88
2023-03-26T06:00:25.587Z,5.88
2023-03-26T06:00:55.232Z,5.88
2023-03-26T06:01:27.562Z,5.88
2023-03-26T06:01:58.846Z,5.88
2023-03-26T06:02:31.756Z,5.88
2023-03-26T06:03:03.123Z,5.88
2023-03-26T06:03:35.840Z,6.00
2023-03-26T06:04:06.875Z,6.00
2023-03-26T06:04:39.752Z,6.00
2023-03-26T06:05:11.263Z,6.00
2023-03-26T06:05:43.542Z,6.00
2023-03-26T06:06:14.800Z,6.00
2023-03-26T06:06:48.523Z,6.00
2023-03-26T06:07:18.804Z,6.00
2023-03-26T06:07:51.597Z,6.00
2023-03-26T06:08:22.893Z,6.00
2023-03-26T06:09:01.085Z,6.00
2023-03-26T06:09:26.782Z,6.00
2023-03-26T06:09:59.598Z,6.11
2023-03-26T06:10:31.387Z,6.11
2023-03-26T06:11:03.600Z,6.11
2023-03-26T06:11:34.989Z,6.11
2023-03-26T06:12:07.642Z,6.11
2023-03-26T06:12:38.889Z,6.11
2023-03-26T06:13:11.684Z,6.22
2023-03-26T06:13:42.782Z,6.22
2023-03-26T06:14:15.493Z,6.22
2023-03-26T06:14:46.985Z,6.22
2023-03-26T06:15:20.714Z,6.22
2023-03-26T06:15:50.937Z,6.22
2023-03-26T06:16:27.118Z,6.22
2023-03-26T06:16:54.865Z,6.22
2023-03-26T06:17:31.424Z,6.22
2023-03-26T06:17:58.944Z,6.22
2023-03-26T06:18:31.212Z,6.27
2023-03-26T06:19:02.909Z,6.27
2023-03-26T06:19:34.887Z,6.27
2023-03-26T06:20:09.299Z,6.27
2023-03-26T06:20:38.832Z,6.38
2023-03-26T06:21:11.581Z,6.38
2023-03-26T06:21:43.053Z,6.27
2023-03-26T06:22:15.672Z,6.27
2023-03-26T06:22:46.973Z,6.38
2023-03-26T06:23:19.825Z,6.38
2023-03-26T06:23:50.833Z,6.38
2023-03-26T06:24:23.672Z,6.38
2023-03-26T06:24:54.972Z,6.38
2023-03-26T06:25:27.994Z,6.38
2023-03-26T06:25:58.938Z,6.50
2023-03-26T06:26:31.848Z,6.50
2023-03-26T06:27:02.986Z,6.50
2023-03-26T06:27:35.744Z,6.50
2023-03-26T06:28:06.766Z,6.50
2023-03-26T06:28:40.630Z,6.50
2023-03-26T06:29:11.179Z,6.61
2023-03-26T06:29:43.767Z,6.61
2023-03-26T06:30:15.800Z,6.61
2023-03-26T06:30:47.943Z,6.61
2023-03-26T06:31:19.004Z,6.61
2023-03-26T06:31:51.620Z,6.61
2023-03-26T06:32:23.089Z,6.72
2023-03-26T06:32:55.892Z,6.72
2023-03-26T06:33:26.827Z,6.72
2023-03-26T06:33:59.826Z,6.72
2023-03-26T06:34:30.958Z,6.72
2023-03-26T06:35:04.852Z,6.72
2023-03-26T06:35:34.940Z,6.72
2023-03-26T06:36:08.402Z,6.72
2023-03-26T06:36:38.948Z,6.72
2023-03-26T06:37:11.570Z,6.72
2023-03-26T06:37:42.909Z,6.77
2023-03-26T06:38:15.609Z,6.77
2023-03-26T06:38:46.924Z,6.77
2023-03-26T06:39:07.819Z,6.77
2023-03-26T06:39:35.023Z,6.77
2023-03-26T06:40:07.076Z,6.77
2023-03-26T06:40:38.923Z,6.77
2023-03-26T06:41:11.066Z,6.88
2023-03-26T06:41:42.867Z,6.88
2023-03-26T06:42:14.825Z,6.88
2023-03-26T06:43:09.668Z,6.88
2023-03-26T06:43:18.808Z,6.88
2023-03-26T06:43:52.370Z,6.88
2023-03-26T06:44:22.836Z,7.00
2023-03-26T06:44:55.841Z,7.00
2023-03-26T06:45:27.797Z,7.00
2023-03-26T06:45:59.961Z,7.00
2023-03-26T06:46:31.139Z,7.00
2023-03-26T06:47:03.507Z,7.00
2023-03-26T06:47:34.866Z,7.00
2023-03-26T06:48:08.688Z,7.00
2023-03-26T06:48:38.947Z,7.11
2023-03-26T06:49:11.610Z,7.11
2023-03-26T06:49:44.928Z,7.11
2023-03-26T06:50:16.036Z,7.11
2023-03-26T06:50:46.819Z,7.11
2023-03-26T06:51:02.972Z,7.11
2023-03-26T06:51:35.004Z,7.22
2023-03-26T06:52:06.786Z,7.22
2023-03-26T06:52:39.671Z,7.22
2023-03-26T06:53:11.039Z,7.22
2023-03-26T06:53:43.497Z,7.22
2023-03-26T06:54:14.909Z,7.22
2023-03-26T06:54:47.789Z,7.27
2023-03-26T06:55:19.175Z,7.27
2023-03-26T06:55:51.721Z,7.27
2023-03-26T06:56:22.948Z,7.27
2023-03-26T06:56:56.853Z,7.38
2023-03-26T06:57:26.842Z,7.38
2023-03-26T06:57:59.993Z,7.38
2023-03-26T06:58:31.034Z,7.38
2023-03-26T06:59:04.393Z,7.38
2023-03-26T06:59:34.816Z,7.38
2023-03-26T07:00:09.017Z,7.50
2023-03-26T07:00:39.228Z,7.50
2023-03-26T07:01:11.681Z,7.50
2023-03-26T07:01:43.642Z,7.50
2023-03-26T07:02:15.877Z,7.50
2023-03-26T07:02:46.835Z,7.50
2023-03-26T07:03:19.747Z,7.61
2023-03-26T07:03:50.917Z,7.61